Time;durP1;ratioP1;P1;durP2;ratioP2;P2;SDS_P1;SDS_P2;PMS_P1;PMS_P2;Temp;Humidity;BMP_temperature;BMP_pressure;BME280_temperature;BME280_humidity;BME280_pressure;Samples;Min_cycle;Max_cycle;Signal;HPM_P1;HPM_P2
2022/05/19 00:02:03;;;;;;;6.60;3.50;;;14.10;44.40;;;;;;5051960;28;46405;-61
2022/05/19 00:04:29;;;;;;;7.40;3.53;;;14.00;43.90;;;;;;5056183;28;46614;-61
2022/05/19 00:06:56;;;;;;;6.27;3.13;;;14.00;44.30;;;;;;5051942;28;46358;-62
2022/05/19 00:09:22;;;;;;;7.00;3.70;;;14.00;44.30;;;;;;5057497;28;46401;-61
2022/05/19 00:11:49;;;;;;;6.80;3.30;;;14.00;44.50;;;;;;5050457;28;46329;-62
2022/05/19 00:14:16;;;;;;;8.07;3.40;;;13.90;44.60;;;;;;5057171;28;46430;-61
2022/05/19 00:16:43;;;;;;;6.63;3.50;;;13.90;44.60;;;;;;5051426;28;46731;-63
2022/05/19 00:19:10;;;;;;;8.40;3.20;;;13.90;44.90;;;;;;5050701;28;46361;-60
2022/05/19 00:21:36;;;;;;;4.60;2.80;;;13.80;44.90;;;;;;5051563;28;46231;-61
2022/05/19 00:24:02;;;;;;;5.80;3.27;;;13.80;44.90;;;;;;5057306;28;46241;-61
2022/05/19 00:26:27;;;;;;;5.37;3.23;;;13.80;45.00;;;;;;5051327;28;46425;-61
2022/05/19 00:28:53;;;;;;;6.47;3.47;;;13.80;45.00;;;;;;5046718;28;46380;-61
2022/05/19 00:31:19;;;;;;;8.20;2.97;;;13.80;45.00;;;;;;5054508;28;45806;-62
2022/05/19 00:33:44;;;;;;;6.60;3.67;;;13.70;44.90;;;;;;5050070;28;46373;-61
2022/05/19 00:36:16;;;;;;;6.83;3.40;;;13.70;45.00;;;;;;5053456;28;47079;-62
2022/05/19 00:38:43;;;;;;;8.80;3.10;;;13.70;45.00;;;;;;5048740;28;46374;-61
2022/05/19 00:41:10;;;;;;;6.67;3.57;;;13.60;45.00;;;;;;5050469;28;46513;-61
2022/05/19 00:43:42;;;;;;;8.80;3.87;;;13.60;44.90;;;;;;5048632;28;46397;-60
2022/05/19 00:46:23;;;;;;;6.97;3.63;;;13.50;45.00;;;;;;5049556;28;46252;-62
2022/05/19 00:49:09;;;;;;;8.83;3.10;;;13.50;45.10;;;;;;5053251;28;46515;-61
2022/05/19 00:51:40;;;;;;;11.50;3.20;;;13.40;45.20;;;;;;5047076;28;46434;-61
2022/05/19 00:54:11;;;;;;;6.80;3.20;;;13.40;45.50;;;;;;5055354;28;46435;-61
2022/05/19 00:57:05;;;;;;;9.03;4.20;;;13.30;45.60;;;;;;5046223;28;47219;-61
2022/05/19 00:59:41;;;;;;;7.07;3.73;;;13.30;45.90;;;;;;5049440;28;46364;-61
2022/05/19 01:02:10;;;;;;;7.90;4.23;;;13.20;45.80;;;;;;5047078;28;46252;-62
2022/05/19 01:04:39;;;;;;;9.00;3.80;;;13.20;46.00;;;;;;5054096;28;46504;-60
2022/05/19 01:07:10;;;;;;;6.57;3.77;;;13.10;46.00;;;;;;5045438;28;47170;-62
2022/05/19 01:09:38;;;;;;;6.67;3.10;;;13.00;46.10;;;;;;5051613;28;46504;-63
2022/05/19 01:12:06;;;;;;;8.77;3.67;;;12.90;46.60;;;;;;5044921;28;46682;-61
2022/05/19 01:14:32;;;;;;;4.70;3.20;;;12.90;46.90;;;;;;5034624;28;46477;-62
2022/05/19 01:16:59;;;;;;;6.27;4.03;;;12.80;47.20;;;;;;5035406;28;47652;-62
2022/05/19 01:19:36;;;;;;;8.73;3.70;;;12.80;47.40;;;;;;5028760;28;46735;-61
2022/05/19 01:22:36;;;;;;;5.70;3.60;;;12.60;47.60;;;;;;5046849;28;45745;-61
2022/05/19 01:25:11;;;;;;;8.20;3.60;;;12.60;47.80;;;;;;5054526;28;46692;-61
2022/05/19 01:27:36;;;;;;;7.83;3.90;;;12.40;48.30;;;;;;5047295;28;46605;-62
2022/05/19 01:30:08;;;;;;;7.47;4.00;;;12.40;48.40;;;;;;5051006;28;45949;-62
2022/05/19 01:32:33;;;;;;;5.60;3.90;;;12.30;48.80;;;;;;5054105;28;45905;-61
2022/05/19 01:34:59;;;;;;;12.87;4.47;;;12.20;49.00;;;;;;5046283;28;46390;-62
2022/05/19 01:37:26;;;;;;;6.73;4.00;;;12.20;49.30;;;;;;5051694;28;46373;-62
2022/05/19 01:40:08;;;;;;;11.00;4.00;;;12.10;49.60;;;;;;5053943;28;46376;-62
2022/05/19 01:42:58;;;;;;;10.00;4.33;;;12.10;50.00;;;;;;5051141;28;45902;-62
2022/05/19 01:45:38;;;;;;;8.53;4.10;;;12.20;50.10;;;;;;5056928;28;46404;-62
2022/05/19 01:48:17;;;;;;;8.37;4.40;;;12.10;49.80;;;;;;5052281;28;46474;-61
2022/05/19 01:50:58;;;;;;;8.03;4.30;;;12.20;49.80;;;;;;5052185;28;46303;-62
2022/05/19 01:53:41;;;;;;;8.27;4.10;;;12.20;50.00;;;;;;5053371;28;46328;-61
2022/05/19 01:56:21;;;;;;;6.83;4.47;;;12.20;50.00;;;;;;5052187;28;46454;-61
2022/05/19 01:59:13;;;;;;;9.57;4.47;;;12.20;49.90;;;;;;5053308;28;46309;-61
2022/05/19 02:01:54;;;;;;;9.00;4.43;;;12.20;49.90;;;;;;5049240;28;46480;-61
2022/05/19 02:04:29;;;;;;;12.53;4.67;;;12.20;49.90;;;;;;5050213;28;46436;-61
2022/05/19 02:07:05;;;;;;;8.23;4.47;;;12.20;49.90;;;;;;5045639;28;46739;-61
2022/05/19 02:09:36;;;;;;;6.30;4.20;;;12.20;50.10;;;;;;5049560;28;48582;-61
2022/05/19 02:12:02;;;;;;;6.90;4.40;;;12.10;50.40;;;;;;5048561;28;46365;-61
2022/05/19 02:14:30;;;;;;;7.20;4.23;;;12.00;50.40;;;;;;5048554;28;46312;-62
2022/05/19 02:16:56;;;;;;;6.60;4.27;;;11.90;50.60;;;;;;5047249;28;46448;-61
2022/05/19 02:19:26;;;;;;;8.37;4.77;;;11.80;50.80;;;;;;5048755;28;46492;-61
2022/05/19 02:21:52;;;;;;;7.93;4.67;;;11.80;51.20;;;;;;5044921;28;46420;-61
2022/05/19 02:24:22;;;;;;;6.30;4.17;;;11.70;51.50;;;;;;5048144;28;46340;-61
2022/05/19 02:26:48;;;;;;;8.23;5.07;;;11.70;51.80;;;;;;5049305;28;46580;-61
2022/05/19 02:29:22;;;;;;;9.20;4.50;;;11.60;52.20;;;;;;5046395;28;46037;-61
2022/05/19 02:31:49;;;;;;;7.77;4.60;;;11.60;52.50;;;;;;5046555;28;45775;-60
2022/05/19 02:34:14;;;;;;;10.63;4.77;;;11.50;52.80;;;;;;5044430;28;45852;-61
2022/05/19 02:36:41;;;;;;;10.03;4.77;;;11.50;53.00;;;;;;5048074;28;46283;-61
2022/05/19 02:39:07;;;;;;;7.20;4.83;;;11.50;53.10;;;;;;5046661;28;47066;-61
2022/05/19 02:41:33;;;;;;;11.90;4.70;;;11.50;53.00;;;;;;5045187;28;46379;-62
2022/05/19 02:43:59;;;;;;;10.57;5.00;;;11.50;53.00;;;;;;5049654;28;46309;-62
2022/05/19 02:46:24;;;;;;;7.63;4.67;;;11.50;53.00;;;;;;5050210;28;45970;-61
2022/05/19 02:48:50;;;;;;;8.57;4.57;;;11.50;53.00;;;;;;5056799;28;46366;-61
2022/05/19 02:51:16;;;;;;;7.37;3.90;;;11.40;52.90;;;;;;5051207;28;46374;-61
2022/05/19 02:53:41;;;;;;;5.77;3.90;;;11.40;52.90;;;;;;5056584;28;46421;-61
2022/05/19 02:56:07;;;;;;;5.10;3.80;;;11.20;53.30;;;;;;5049587;28;46645;-61
2022/05/19 02:58:32;;;;;;;6.10;4.23;;;11.10;53.80;;;;;;5052469;28;46741;-61
2022/05/19 03:00:58;;;;;;;7.60;3.77;;;11.00;54.10;;;;;;5053820;28;46633;-60
2022/05/19 03:03:24;;;;;;;7.40;4.07;;;11.00;54.20;;;;;;5051361;28;46884;-61
2022/05/19 03:05:50;;;;;;;12.23;4.37;;;11.00;54.50;;;;;;5053213;28;46405;-61
2022/05/19 03:08:16;;;;;;;8.90;4.53;;;11.00;54.70;;;;;;5047183;28;46049;-61
2022/05/19 03:10:43;;;;;;;11.97;4.23;;;10.90;54.90;;;;;;5057237;28;46455;-62
2022/05/19 03:13:22;;;;;;;8.13;4.80;;;10.90;54.90;;;;;;5050607;28;46386;-62
2022/05/19 03:15:48;;;;;;;8.47;4.40;;;10.90;55.10;;;;;;5053872;28;46790;-61
2022/05/19 03:18:15;;;;;;;11.80;4.20;;;10.80;55.00;;;;;;5052074;28;47107;-60
2022/05/19 03:20:41;;;;;;;7.80;4.63;;;10.80;55.30;;;;;;5053804;28;46551;-62
2022/05/19 03:23:07;;;;;;;6.53;4.50;;;10.80;55.40;;;;;;5055097;28;46399;-63
2022/05/19 03:25:32;;;;;;;8.03;5.43;;;10.80;55.50;;;;;;5047418;28;45850;-62
2022/05/19 03:27:58;;;;;;;13.00;4.80;;;10.90;55.60;;;;;;5056650;28;46545;-61
2022/05/19 03:30:24;;;;;;;7.83;4.57;;;10.90;55.70;;;;;;5047757;28;46389;-62
2022/05/19 03:32:50;;;;;;;8.30;4.80;;;10.90;55.60;;;;;;5054270;28;46504;-62
2022/05/19 03:35:16;;;;;;;9.00;4.80;;;10.90;55.70;;;;;;5050695;28;46290;-62
2022/05/19 03:37:43;;;;;;;9.00;6.53;;;10.90;55.70;;;;;;5054183;28;46487;-63
2022/05/19 03:40:10;;;;;;;11.70;5.07;;;11.00;55.70;;;;;;5049842;28;46364;-61
2022/05/19 03:42:36;;;;;;;7.87;5.23;;;11.00;55.70;;;;;;5046453;28;46279;-61
2022/05/19 03:45:03;;;;;;;13.23;6.03;;;11.00;56.00;;;;;;5054669;28;46628;-62
2022/05/19 03:47:29;;;;;;;10.17;5.63;;;11.10;56.00;;;;;;5058147;28;48131;-62
2022/05/19 03:49:55;;;;;;;9.40;5.80;;;11.20;55.80;;;;;;5050290;28;46184;-62
2022/05/19 03:52:20;;;;;;;8.30;5.20;;;11.30;55.70;;;;;;5055378;28;46318;-62
2022/05/19 03:54:46;;;;;;;8.50;5.57;;;11.40;55.50;;;;;;5055687;28;46445;-62
2022/05/19 03:57:13;;;;;;;8.13;4.97;;;11.40;55.50;;;;;;5048727;28;46956;-62
2022/05/19 03:59:38;;;;;;;7.60;4.40;;;11.50;55.70;;;;;;5054697;28;46432;-62
2022/05/19 04:02:04;;;;;;;11.37;4.37;;;11.50;55.60;;;;;;5047620;28;46204;-62
2022/05/19 04:04:30;;;;;;;7.17;4.50;;;11.40;55.60;;;;;;5051122;28;46374;-62
2022/05/19 04:06:56;;;;;;;5.73;4.30;;;11.50;55.70;;;;;;5055128;28;46358;-63
2022/05/19 04:09:21;;;;;;;7.80;4.60;;;11.50;55.50;;;;;;5057781;28;46474;-62
2022/05/19 04:11:47;;;;;;;6.17;4.73;;;11.60;55.50;;;;;;5051558;28;46655;-61
2022/05/19 04:14:12;;;;;;;10.93;4.93;;;11.70;55.50;;;;;;5060164;28;46379;-62
2022/05/19 04:16:38;;;;;;;6.70;4.80;;;11.70;55.50;;;;;;5053567;28;46517;-61
2022/05/19 04:19:04;;;;;;;7.27;5.20;;;11.80;55.30;;;;;;5054154;28;46682;-61
2022/05/19 04:21:30;;;;;;;8.90;4.47;;;11.90;55.10;;;;;;5055933;28;46588;-62
2022/05/19 04:23:56;;;;;;;10.13;4.83;;;12.00;54.90;;;;;;5052718;28;46637;-61
2022/05/19 04:26:22;;;;;;;5.63;4.20;;;12.10;54.70;;;;;;5056703;28;46464;-63
2022/05/19 04:28:48;;;;;;;6.37;4.50;;;12.20;54.40;;;;;;5052462;28;46398;-61
2022/05/19 04:31:14;;;;;;;7.80;5.10;;;12.20;54.40;;;;;;5052382;28;45835;-62
2022/05/19 04:33:40;;;;;;;10.10;5.00;;;12.30;53.90;;;;;;5055170;28;46405;-62
2022/05/19 04:36:06;;;;;;;5.90;4.53;;;12.40;53.90;;;;;;5048946;28;47220;-62
2022/05/19 04:38:32;;;;;;;6.17;4.30;;;12.60;54.00;;;;;;5053891;28;46498;-62
2022/05/19 04:41:02;;;;;;;11.03;4.87;;;12.70;55.30;;;;;;5051853;28;46477;-61
2022/05/19 04:43:28;;;;;;;11.77;4.90;;;13.00;54.40;;;;;;5052014;28;46490;-61
2022/05/19 04:45:55;;;;;;;7.40;4.30;;;13.00;54.00;;;;;;5054106;28;46630;-61
2022/05/19 04:48:21;;;;;;;7.70;4.73;;;13.10;53.70;;;;;;5048155;28;46654;-62
2022/05/19 04:50:51;;;;;;;10.80;5.37;;;13.30;53.30;;;;;;5053895;28;46314;-63
2022/05/19 04:53:17;;;;;;;12.43;4.67;;;13.70;52.90;;;;;;5049528;28;46634;-63
2022/05/19 04:55:42;;;;;;;7.33;3.73;;;15.00;52.10;;;;;;5049705;28;47099;-59
2022/05/19 04:58:08;;;;;;;12.57;3.70;;;16.50;49.80;;;;;;5051800;28;46536;-62
2022/05/19 05:00:35;;;;;;;7.37;4.23;;;18.00;46.70;;;;;;5053874;28;46652;-61
2022/05/19 05:03:02;;;;;;;8.20;3.83;;;19.30;43.90;;;;;;5052194;28;46051;-62
2022/05/19 05:05:27;;;;;;;6.90;3.67;;;20.50;41.10;;;;;;5057417;28;47248;-62
2022/05/19 05:07:53;;;;;;;8.10;3.83;;;21.60;38.30;;;;;;5051398;28;46267;-61
2022/05/19 05:10:18;;;;;;;8.00;4.33;;;22.50;36.40;;;;;;5052314;28;46328;-62
2022/05/19 05:12:44;;;;;;;7.83;4.17;;;23.10;34.00;;;;;;5054334;28;46036;-61
2022/05/19 05:15:10;;;;;;;8.97;3.83;;;23.60;32.40;;;;;;5050459;28;46394;-61
2022/05/19 05:17:36;;;;;;;7.83;4.00;;;23.80;31.10;;;;;;5055015;28;46338;-61
2022/05/19 05:20:04;;;;;;;6.90;4.40;;;24.20;30.00;;;;;;5052250;28;45795;-62
2022/05/19 05:22:34;;;;;;;8.10;4.20;;;24.50;28.90;;;;;;5055531;28;46460;-62
2022/05/19 05:25:00;;;;;;;7.33;3.80;;;25.10;27.90;;;;;;5051669;28;47190;-61
2022/05/19 05:27:26;;;;;;;5.93;3.53;;;25.60;26.30;;;;;;5051352;28;46454;-61
2022/05/19 05:29:52;;;;;;;7.63;4.20;;;25.80;25.70;;;;;;5049915;28;46436;-62
2022/05/19 05:32:17;;;;;;;8.53;4.17;;;26.00;24.50;;;;;;5050060;28;46463;-62
2022/05/19 05:34:43;;;;;;;7.50;3.90;;;26.30;23.60;;;;;;5049778;28;46352;-61
2022/05/19 05:37:08;;;;;;;10.37;4.77;;;26.90;21.80;;;;;;5047690;28;46515;-61
2022/05/19 05:39:34;;;;;;;6.50;4.43;;;27.40;20.80;;;;;;5052419;28;45920;-62
2022/05/19 05:42:00;;;;;;;7.10;3.90;;;27.60;20.20;;;;;;5046406;28;46335;-62
2022/05/19 05:44:25;;;;;;;10.27;3.37;;;27.90;19.80;;;;;;5052275;28;46486;-62
2022/05/19 05:46:51;;;;;;;10.37;4.47;;;28.00;19.30;;;;;;5049018;28;46443;-61
2022/05/19 05:49:18;;;;;;;6.67;3.97;;;27.80;19.50;;;;;;5048971;28;45963;-61
2022/05/19 05:51:44;;;;;;;8.20;3.90;;;27.80;19.10;;;;;;5051582;28;46381;-61
2022/05/19 05:54:10;;;;;;;14.03;4.00;;;28.00;18.70;;;;;;5048724;28;46365;-62
2022/05/19 05:56:36;;;;;;;8.27;4.53;;;28.10;18.30;;;;;;5049168;28;46378;-61
2022/05/19 05:59:01;;;;;;;7.63;4.37;;;27.60;19.00;;;;;;5045650;28;46361;-64
2022/05/19 06:01:27;;;;;;;9.90;3.77;;;27.40;19.10;;;;;;5051914;28;46580;-61
2022/05/19 06:03:53;;;;;;;7.93;4.10;;;27.30;19.50;;;;;;5046742;28;46517;-60
2022/05/19 06:06:19;;;;;;;7.83;4.57;;;27.40;19.30;;;;;;5059125;28;46406;-60
2022/05/19 06:08:45;;;;;;;7.23;4.47;;;27.70;18.40;;;;;;5051504;28;46404;-61
2022/05/19 06:11:13;;;;;;;12.97;4.50;;;27.40;18.50;;;;;;5048713;28;45807;-61
2022/05/19 06:13:39;;;;;;;10.00;4.47;;;26.80;20.10;;;;;;5055435;28;46848;-60
2022/05/19 06:16:04;;;;;;;7.03;3.40;;;25.50;22.10;;;;;;5056827;28;46277;-60
2022/05/19 06:18:30;;;;;;;6.50;4.03;;;24.60;24.20;;;;;;5047295;28;46400;-60
2022/05/19 06:20:56;;;;;;;9.43;4.30;;;23.90;25.30;;;;;;5052277;28;46416;-60
2022/05/19 06:23:22;;;;;;;6.00;3.67;;;23.30;26.10;;;;;;5050233;28;46383;-60
2022/05/19 06:25:48;;;;;;;7.60;3.90;;;22.80;27.10;;;;;;5048712;28;46459;-61
2022/05/19 06:28:14;;;;;;;7.43;4.20;;;22.40;27.80;;;;;;5057550;28;46316;-60
2022/05/19 06:30:40;;;;;;;7.30;3.63;;;22.20;28.20;;;;;;5053209;28;46405;-63
2022/05/19 06:33:06;;;;;;;7.43;4.30;;;22.10;28.50;;;;;;5055569;28;46389;-63
2022/05/19 06:35:32;;;;;;;11.13;3.67;;;21.90;28.80;;;;;;5057574;28;46356;-61
2022/05/19 06:37:59;;;;;;;11.67;4.67;;;21.90;29.00;;;;;;5057307;28;46651;-62
2022/05/19 06:40:26;;;;;;;11.20;3.90;;;21.90;29.10;;;;;;5052495;28;46353;-61
2022/05/19 06:42:52;;;;;;;6.77;4.10;;;21.90;30.50;;;;;;5059003;28;46448;-62
2022/05/19 06:45:22;;;;;;;10.50;4.60;;;22.00;29.60;;;;;;5052741;28;46418;-61
2022/05/19 06:47:48;;;;;;;8.67;4.07;;;21.80;29.90;;;;;;5056025;28;46298;-61
2022/05/19 06:50:14;;;;;;;25.43;4.67;;;21.70;29.80;;;;;;5053627;28;46713;-61
2022/05/19 06:52:49;;;;;;;11.40;4.83;;;21.80;29.90;;;;;;5052818;28;46107;-60
2022/05/19 06:55:17;;;;;;;6.10;4.20;;;21.70;29.80;;;;;;5054871;28;46402;-62
2022/05/19 06:57:43;;;;;;;10.67;4.50;;;21.80;29.80;;;;;;5052104;28;46346;-61
2022/05/19 07:00:12;;;;;;;6.43;4.60;;;21.90;29.80;;;;;;5055674;28;46479;-62
2022/05/19 07:02:45;;;;;;;6.87;3.90;;;21.90;29.80;;;;;;5051318;28;47925;-63
2022/05/19 07:05:11;;;;;;;9.93;4.53;;;22.00;29.90;;;;;;5052531;28;46365;-62
2022/05/19 07:07:38;;;;;;;7.50;4.93;;;22.10;29.80;;;;;;5055751;28;46402;-61
2022/05/19 07:10:04;;;;;;;8.50;4.63;;;22.20;29.80;;;;;;5050750;28;46385;-63
2022/05/19 07:12:29;;;;;;;7.60;4.30;;;22.30;29.80;;;;;;5052174;28;46512;-60
2022/05/19 07:14:56;;;;;;;7.73;4.70;;;22.40;30.00;;;;;;5051364;28;46370;-60
2022/05/19 07:17:21;;;;;;;7.70;4.87;;;22.30;30.00;;;;;;5051111;28;45834;-60
2022/05/19 07:22:33;;;;;;;7.87;4.77;;;22.40;30.30;;;;;;5046819;28;46363;-62
2022/05/19 07:25:06;;;;;;;13.97;4.83;;;22.20;30.40;;;;;;5052829;28;46368;-62
2022/05/19 07:27:33;;;;;;;13.17;5.73;;;22.20;31.00;;;;;;5049652;28;46488;-61
2022/05/19 07:30:00;;;;;;;11.93;4.53;;;22.40;31.00;;;;;;5049494;28;46779;-61
2022/05/19 07:32:27;;;;;;;11.47;4.87;;;22.70;30.90;;;;;;5053780;28;46536;-62
2022/05/19 07:34:54;;;;;;;10.50;4.67;;;22.70;30.80;;;;;;5054490;28;46887;-61
2022/05/19 07:37:20;;;;;;;7.63;5.20;;;22.90;30.90;;;;;;5048780;28;46299;-61
2022/05/19 07:39:45;;;;;;;8.70;4.70;;;23.10;30.80;;;;;;5052394;28;46433;-62
2022/05/19 07:42:11;;;;;;;7.90;4.90;;;23.20;30.50;;;;;;5054776;28;46487;-60
2022/05/19 07:44:37;;;;;;;8.93;4.73;;;23.50;30.40;;;;;;5051844;28;46421;-61
2022/05/19 07:47:02;;;;;;;11.50;4.30;;;23.60;30.20;;;;;;5055677;28;46366;-61
2022/05/19 07:49:28;;;;;;;13.77;5.10;;;23.80;30.10;;;;;;5052472;28;46572;-63
2022/05/19 07:51:54;;;;;;;7.43;4.13;;;24.00;30.00;;;;;;5051611;28;46976;-62
2022/05/19 07:54:22;;;;;;;10.40;4.20;;;24.00;30.10;;;;;;5051118;28;46790;-62
2022/05/19 07:56:49;;;;;;;12.27;4.60;;;24.10;30.20;;;;;;5050509;28;46478;-61
2022/05/19 07:59:15;;;;;;;13.23;4.63;;;24.10;30.50;;;;;;5050810;28;46370;-61
2022/05/19 08:01:43;;;;;;;9.37;4.20;;;24.20;31.10;;;;;;5051113;28;47149;-61
2022/05/19 08:04:09;;;;;;;11.47;4.70;;;24.20;30.80;;;;;;5051445;28;46329;-61
2022/05/19 08:06:35;;;;;;;11.30;4.33;;;24.30;30.80;;;;;;5053406;28;46326;-61
2022/05/19 08:10:20;;;;;;;8.50;4.13;;;24.40;30.90;;;;;;5049974;28;46622;-61
2022/05/19 08:11:46;;;;;;;8.73;3.70;;;24.60;31.00;;;;;;5050137;28;46362;-60
2022/05/19 08:16:56;;;;;;;9.67;4.20;;;25.00;30.70;;;;;;5050482;28;46416;-61
2022/05/19 08:19:22;;;;;;;9.10;4.30;;;25.00;30.90;;;;;;5054006;28;46635;-60
2022/05/19 08:21:47;;;;;;;8.93;3.80;;;24.80;31.00;;;;;;5048026;28;47187;-61
2022/05/19 08:24:14;;;;;;;10.57;4.50;;;24.60;31.60;;;;;;5056517;28;46429;-61
2022/05/19 08:26:39;;;;;;;8.23;3.83;;;24.60;32.30;;;;;;5048483;28;46223;-61
2022/05/19 08:29:05;;;;;;;6.87;4.33;;;24.70;32.70;;;;;;5051245;28;46445;-60
2022/05/19 08:31:31;;;;;;;15.20;4.93;;;25.00;32.30;;;;;;5051553;28;46907;-59
2022/05/19 08:33:58;;;;;;;10.80;3.67;;;24.90;31.80;;;;;;5053725;28;46420;-64
2022/05/19 08:36:25;;;;;;;8.90;4.67;;;25.10;31.80;;;;;;5057802;28;46315;-62
2022/05/19 08:38:51;;;;;;;8.30;4.73;;;25.20;31.40;;;;;;5045086;28;46414;-61
2022/05/19 08:41:35;;;;;;;9.20;4.23;;;25.20;31.30;;;;;;5049646;28;47100;-61
2022/05/19 08:44:15;;;;;;;8.00;4.30;;;25.30;31.50;;;;;;5048220;28;46234;-62
2022/05/19 08:46:49;;;;;;;7.87;4.50;;;25.30;31.60;;;;;;5052058;28;46465;-61
2022/05/19 08:49:20;;;;;;;8.43;4.70;;;25.30;32.80;;;;;;5053269;28;46357;-61
2022/05/19 08:51:59;;;;;;;11.30;4.60;;;25.40;31.90;;;;;;5051205;28;46326;-62
2022/05/19 08:54:25;;;;;;;6.27;3.63;;;25.60;32.20;;;;;;5051730;28;46420;-61
2022/05/19 08:57:16;;;;;;;9.00;4.37;;;25.90;31.80;;;;;;5048191;28;46242;-61
2022/05/19 09:00:29;;;;;;;8.73;4.50;;;26.00;31.60;;;;;;5054887;28;46317;-62
2022/05/19 09:03:22;;;;;;;9.93;4.23;;;26.00;31.20;;;;;;5045220;28;47486;-61
2022/05/19 09:06:05;;;;;;;7.77;4.20;;;25.90;31.80;;;;;;5051155;28;46425;-60
2022/05/19 09:08:34;;;;;;;8.20;4.60;;;26.00;31.30;;;;;;5049829;28;46423;-60
2022/05/19 09:11:13;;;;;;;9.00;4.43;;;26.10;31.20;;;;;;5049896;28;46378;-61
2022/05/19 09:14:00;;;;;;;8.33;4.67;;;26.20;30.80;;;;;;5052186;28;47283;-62
2022/05/19 09:16:29;;;;;;;7.53;4.40;;;26.50;30.60;;;;;;5050936;28;46069;-60
2022/05/19 09:19:03;;;;;;;10.63;4.60;;;26.40;30.20;;;;;;5052278;28;46646;-60
2022/05/19 09:21:28;;;;;;;7.30;4.53;;;26.50;30.40;;;;;;5052489;28;46243;-61
2022/05/19 09:23:54;;;;;;;8.80;4.87;;;26.50;30.60;;;;;;5054424;28;46425;-60
2022/05/19 09:26:38;;;;;;;11.70;4.50;;;26.50;30.50;;;;;;5051360;28;46417;-60
2022/05/19 09:29:10;;;;;;;9.10;4.60;;;26.60;30.80;;;;;;5053191;28;46414;-61
2022/05/19 09:31:49;;;;;;;9.53;4.37;;;26.70;30.40;;;;;;5051128;28;46409;-62
2022/05/19 09:34:15;;;;;;;7.57;4.00;;;26.60;30.30;;;;;;5054826;28;46605;-62
2022/05/19 09:37:12;;;;;;;7.03;3.80;;;26.70;30.70;;;;;;5050760;28;46362;-62
2022/05/19 09:40:06;;;;;;;7.73;5.00;;;26.80;30.20;;;;;;5050302;28;45866;-62
2022/05/19 09:42:51;;;;;;;5.53;4.07;;;27.00;30.20;;;;;;5049790;28;46308;-62
2022/05/19 09:45:21;;;;;;;7.50;3.90;;;27.20;30.10;;;;;;5046038;28;46810;-61
2022/05/19 09:47:51;;;;;;;8.27;4.27;;;27.00;30.20;;;;;;5051366;28;46469;-61
2022/05/19 09:50:27;;;;;;;10.73;3.83;;;27.10;30.00;;;;;;5048062;28;46253;-61
2022/05/19 09:53:01;;;;;;;12.63;3.63;;;27.20;30.00;;;;;;5050813;28;46227;-60
2022/05/19 09:55:28;;;;;;;11.50;4.50;;;27.00;29.90;;;;;;5049112;28;47014;-60
2022/05/19 09:57:56;;;;;;;8.23;3.92;;;26.90;30.10;;;;;;5044160;28;46687;-59
2022/05/19 10:00:57;;;;;;;8.17;3.67;;;26.90;29.80;;;;;;5048773;28;46355;-59
2022/05/19 10:03:38;;;;;;;8.00;4.23;;;27.10;30.70;;;;;;5053429;28;46469;-60
2022/05/19 10:06:14;;;;;;;8.20;4.77;;;27.20;30.50;;;;;;5050879;28;48283;-61
2022/05/19 10:08:42;;;;;;;7.10;3.97;;;27.50;30.00;;;;;;5054212;28;46364;-60
2022/05/19 10:11:14;;;;;;;6.90;3.70;;;27.50;29.80;;;;;;5050192;28;46484;-61
2022/05/19 10:13:54;;;;;;;9.00;4.00;;;27.80;29.10;;;;;;5052640;28;46790;-61
2022/05/19 10:16:51;;;;;;;8.33;3.50;;;27.80;29.30;;;;;;5048852;28;46472;-60
2022/05/19 10:19:44;;;;;;;8.97;4.23;;;28.00;29.10;;;;;;5052586;28;46416;-61
2022/05/19 10:22:35;;;;;;;8.20;4.40;;;28.00;28.70;;;;;;5047901;28;46387;-61
2022/05/19 10:25:27;;;;;;;8.10;3.53;;;27.90;28.80;;;;;;5050508;28;46389;-61
2022/05/19 10:31:07;;;;;;;8.87;3.80;;;28.00;29.10;;;;;;5048278;28;46342;-60
2022/05/19 10:33:50;;;;;;;8.30;3.70;;;27.90;29.20;;;;;;5050805;28;46322;-61
2022/05/19 10:36:40;;;;;;;8.80;3.83;;;28.00;29.10;;;;;;5048844;28;46399;-59
2022/05/19 10:39:36;;;;;;;11.47;4.53;;;28.00;29.30;;;;;;5047946;28;47094;-60
2022/05/19 10:42:10;;;;;;;9.33;3.83;;;28.20;29.20;;;;;;5049201;28;46263;-61
2022/05/19 10:45:15;;;;;;;4.97;3.60;;;28.50;28.40;;;;;;5047781;28;45866;-60
2022/05/19 10:48:15;;;;;;;6.43;3.40;;;28.30;28.60;;;;;;5051766;28;45861;-60
2022/05/19 10:50:54;;;;;;;13.17;4.00;;;28.40;28.50;;;;;;5044633;28;48083;-60
2022/05/19 10:53:35;;;;;;;4.63;2.70;;;28.60;27.90;;;;;;5052734;28;45789;-60
2022/05/19 10:56:09;;;;;;;8.57;3.20;;;28.80;28.00;;;;;;5043980;28;46294;-60
2022/05/19 10:58:59;;;;;;;7.30;3.70;;;29.00;28.00;;;;;;5045821;28;46585;-60
2022/05/19 11:01:37;;;;;;;6.50;3.30;;;29.20;27.30;;;;;;5043462;28;47012;-59
2022/05/19 11:04:18;;;;;;;6.70;3.67;;;29.10;27.60;;;;;;5049119;28;46147;-61
2022/05/19 11:06:47;;;;;;;11.37;3.93;;;28.80;27.70;;;;;;5050869;28;46312;-59
2022/05/19 11:09:50;;;;;;;6.63;3.30;;;28.80;28.00;;;;;;5058850;28;46306;-60
2022/05/19 11:12:19;;;;;;;7.77;3.13;;;29.10;27.70;;;;;;5049013;28;46713;-59
2022/05/19 11:15:04;;;;;;;8.53;3.80;;;29.20;27.10;;;;;;5052596;28;46410;-59
2022/05/19 11:17:50;;;;;;;5.20;3.40;;;29.30;26.00;;;;;;5056022;28;46292;-61
2022/05/19 11:20:28;;;;;;;8.20;3.50;;;29.20;26.70;;;;;;5057605;28;46432;-60
2022/05/19 11:23:10;;;;;;;7.10;3.70;;;29.20;27.70;;;;;;5055780;28;46741;-59
2022/05/19 11:28:49;;;;;;;7.03;3.60;;;29.50;26.60;;;;;;5055077;28;46588;-59
2022/05/19 11:31:29;;;;;;;5.60;3.47;;;29.60;26.30;;;;;;5054976;28;46433;-60
2022/05/19 11:33:58;;;;;;;5.60;3.00;;;29.50;26.50;;;;;;5056536;28;46418;-61
2022/05/19 11:36:37;;;;;;;8.20;3.40;;;29.40;25.80;;;;;;5050870;28;46424;-59
2022/05/19 11:39:33;;;;;;;6.60;3.20;;;29.40;26.20;;;;;;5053398;28;45825;-61
2022/05/19 11:42:34;;;;;;;8.10;3.57;;;29.40;26.10;;;;;;5050476;28;46461;-61
2022/05/19 11:45:01;;;;;;;5.30;3.27;;;29.10;25.60;;;;;;5051848;28;46400;-60
2022/05/19 11:56:18;;;;;;;4.80;3.00;;;29.20;25.80;;;;;;5052119;28;46335;-60
2022/05/19 11:58:44;;;;;;;11.87;3.53;;;29.40;25.40;;;;;;5051041;28;46422;-60
2022/05/19 12:01:26;;;;;;;11.43;3.20;;;29.60;24.70;;;;;;5051208;28;46382;-60
2022/05/19 12:04:03;;;;;;;6.73;3.13;;;29.70;24.00;;;;;;5054594;28;46731;-61
2022/05/19 12:06:34;;;;;;;8.50;3.23;;;29.80;23.90;;;;;;5050871;28;46422;-60
2022/05/19 12:09:05;;;;;;;6.80;3.00;;;29.80;23.60;;;;;;5053205;28;46431;-60
2022/05/19 12:11:47;;;;;;;12.90;3.10;;;29.80;24.20;;;;;;5051750;28;46457;-60
2022/05/19 12:14:25;;;;;;;7.60;3.10;;;29.70;24.70;;;;;;5047845;28;46385;-59
2022/05/19 12:17:06;;;;;;;7.50;3.27;;;29.80;24.20;;;;;;5052343;28;47158;-59
2022/05/19 12:19:38;;;;;;;6.70;3.30;;;29.60;24.30;;;;;;5047950;28;46440;-60
2022/05/19 12:22:24;;;;;;;7.23;3.00;;;29.60;23.60;;;;;;5051360;28;46802;-60
2022/05/19 12:25:00;;;;;;;6.23;3.20;;;29.70;23.10;;;;;;5046924;28;46475;-59
2022/05/19 12:27:38;;;;;;;4.57;2.90;;;29.70;23.70;;;;;;5051655;28;47097;-60
2022/05/19 12:33:15;;;;;;;6.50;2.90;;;29.80;23.90;;;;;;5055672;28;46378;-60
2022/05/19 12:35:43;;;;;;;7.20;2.73;;;29.70;23.90;;;;;;5056992;28;46475;-59
2022/05/19 12:38:30;;;;;;;6.30;2.43;;;29.70;23.70;;;;;;5054274;28;46450;-60
2022/05/19 12:40:58;;;;;;;9.73;2.97;;;29.40;22.70;;;;;;5049164;28;45819;-59
2022/05/19 12:43:34;;;;;;;7.03;2.80;;;29.30;23.20;;;;;;5052876;28;46465;-59
2022/05/19 12:46:01;;;;;;;4.10;2.43;;;29.30;23.10;;;;;;5050650;28;46569;-60
2022/05/19 12:48:33;;;;;;;7.10;2.70;;;29.40;22.60;;;;;;5052830;28;47308;-60
2022/05/19 12:51:16;;;;;;;5.33;2.90;;;29.20;22.90;;;;;;5047596;28;46682;-59
2022/05/19 12:53:42;;;;;;;13.43;3.30;;;29.10;24.00;;;;;;5051932;28;46432;-60
2022/05/19 12:56:08;;;;;;;6.47;2.77;;;29.10;24.10;;;;;;5053582;28;46488;-61
2022/05/19 12:58:37;;;;;;;7.10;2.60;;;29.20;24.00;;;;;;5049861;28;47072;-61
2022/05/19 13:01:21;;;;;;;8.63;3.00;;;29.30;23.70;;;;;;5049149;28;46423;-61
2022/05/19 13:04:23;;;;;;;6.77;2.60;;;29.20;22.90;;;;;;5050856;28;46393;-59
2022/05/19 13:07:05;;;;;;;7.80;3.07;;;29.20;23.30;;;;;;5049455;28;46348;-60
2022/05/19 13:09:33;;;;;;;5.30;2.73;;;29.60;23.00;;;;;;5051630;28;47161;-60
2022/05/19 13:12:11;;;;;;;4.67;3.20;;;30.00;22.50;;;;;;5048770;28;46441;-59
2022/05/19 13:14:43;;;;;;;4.20;2.80;;;30.00;21.90;;;;;;5052844;28;46387;-60
2022/05/19 13:17:19;;;;;;;8.00;2.93;;;29.90;21.70;;;;;;5047337;28;46427;-61
2022/05/19 13:19:44;;;;;;;7.80;3.20;;;29.90;21.70;;;;;;5048331;28;47256;-59
2022/05/19 13:22:23;;;;;;;9.10;3.60;;;29.80;21.90;;;;;;5048872;28;46450;-60
2022/05/19 13:24:49;;;;;;;5.83;3.10;;;29.60;21.90;;;;;;5046634;28;46287;-60
2022/05/19 13:30:39;;;;;;;11.40;3.30;;;30.00;21.70;;;;;;5042066;28;46506;-61
2022/05/19 13:33:22;;;;;;;12.10;3.10;;;30.40;20.60;;;;;;5054727;28;45740;-61
2022/05/19 13:36:27;;;;;;;9.27;3.20;;;30.50;20.70;;;;;;5044113;28;46359;-59